Lanark, Illinois
Current Conditions -  °F | °C
As of 10:15 AM on Sunday 25 Jan 2015 (Local Time) from KSFY Reporting Station
Light Snow Light Snow  
Wind Chill: 20°   Ceiling: 1400
Heat Index: 30°   Visibility: 2.5mi
Dew Point: 25°   Wind: 13mph
Humidity: 82%   Direction: 40°NE
Pressure: 29.82"   Gusts: 25mph
Location:  42.1°N, 89.83°W
Report Text: KSFY 251615Z AUTO 04011G22KT 2 1/2SM -SN OVC014 M01/M04 A2982 RMK AO2 T10101037
Loading
Personal Weather Stations






























Interactive Weather Map New forecast layout! Learn more

10-Day Weather Forecast

Advertisements
Track Severe Weather on mobile